createdAt,value
2022-09-12T00:46:40.742Z,5.20
2022-09-12T00:49:50.730Z,7.03
2022-09-12T00:52:49.751Z,5.03
2022-09-12T00:55:43.280Z,5.10
2022-09-12T00:58:43.309Z,4.72
2022-09-12T01:47:58.566Z,3.70
2022-09-12T01:50:50.722Z,3.50
2022-09-12T01:53:51.366Z,3.90
2022-09-12T01:56:40.700Z,5.15
2022-09-12T01:59:35.725Z,3.57
2022-09-12T02:48:30.912Z,4.03
2022-09-12T02:51:27.772Z,4.55
2022-09-12T02:54:16.766Z,3.28
2022-09-12T02:57:48.428Z,3.85
2022-09-12T04:32:26.166Z,3.38
2022-09-12T04:35:17.918Z,3.30
2022-09-12T04:38:06.019Z,3.20
2022-09-12T04:40:52.302Z,5.43
2022-09-12T04:43:37.150Z,2.78
2022-09-12T04:46:22.371Z,3.30
2022-09-12T04:49:07.907Z,3.33
2022-09-12T04:51:54.876Z,2.60
2022-09-12T04:54:40.230Z,2.67
2022-09-12T04:57:25.959Z,3.25
2022-09-12T05:00:13.432Z,2.80
2022-09-12T05:02:58.355Z,3.40
2022-09-12T05:05:43.128Z,2.38
2022-09-12T05:08:28.099Z,3.72
2022-09-12T05:11:16.675Z,5.63
2022-09-12T05:14:02.473Z,5.90
2022-09-12T05:16:49.712Z,5.83
2022-09-12T05:19:35.523Z,5.00
2022-09-12T05:22:20.697Z,6.05
2022-09-12T05:25:06.909Z,5.25
2022-09-12T05:27:55.087Z,6.32
2022-09-12T05:30:39.965Z,7.30
2022-09-12T05:33:25.398Z,5.30
2022-09-12T05:36:15.693Z,6.55
2022-09-12T05:39:00.771Z,5.80
2022-09-12T05:41:46.238Z,6.32
2022-09-12T05:44:31.311Z,7.27
2022-09-12T05:47:17.351Z,5.53
2022-09-12T05:50:02.554Z,5.70
2022-09-12T05:52:47.710Z,6.03
2022-09-12T05:55:33.163Z,5.00
2022-09-12T05:58:18.020Z,5.67
2022-09-12T06:01:08.468Z,6.43
2022-09-12T06:03:56.620Z,6.05
2022-09-12T06:06:45.026Z,6.28
2022-09-12T06:09:30.797Z,5.90
2022-09-12T06:12:16.027Z,5.13
2022-09-12T06:15:00.880Z,5.30
2022-09-12T06:17:51.376Z,8.07
2022-09-12T06:20:36.956Z,6.85
2022-09-12T06:23:22.413Z,5.10
2022-09-12T06:26:09.782Z,5.70
2022-09-12T06:28:56.685Z,7.95
2022-09-12T06:31:43.480Z,6.10
2022-09-12T06:34:28.543Z,5.18
2022-09-12T06:37:14.129Z,5.55
2022-09-12T06:40:00.287Z,7.40
2022-09-12T06:42:47.087Z,5.93
2022-09-12T06:45:49.617Z,5.20
2022-09-12T06:48:39.566Z,5.75
2022-09-12T06:51:28.280Z,6.10
2022-09-12T06:54:15.649Z,5.50
2022-09-12T06:57:01.280Z,5.47
2022-09-12T06:59:46.348Z,7.88
2022-09-12T07:02:31.579Z,5.32
2022-09-12T07:05:16.669Z,6.10
2022-09-12T07:08:01.627Z,5.83
2022-09-12T07:10:47.106Z,5.05
2022-09-12T07:13:32.290Z,4.60
2022-09-12T07:16:19.951Z,4.70
2022-09-12T07:19:07.070Z,4.85
2022-09-12T07:21:55.313Z,5.83
2022-09-12T07:24:45.765Z,6.55
2022-09-12T07:27:30.975Z,4.97
2022-09-12T07:30:17.721Z,6.50
2022-09-12T07:33:02.614Z,4.68
2022-09-12T07:35:47.871Z,4.20
2022-09-12T07:38:33.158Z,5.32
2022-09-12T07:41:21.289Z,5.60
2022-09-12T07:44:07.169Z,5.35
2022-09-12T07:46:52.305Z,6.45
2022-09-12T07:49:37.639Z,4.57
2022-09-12T07:52:22.643Z,3.88
2022-09-12T07:55:07.826Z,5.32
2022-09-12T07:57:53.367Z,5.35
2022-09-12T08:00:38.475Z,5.43
2022-09-12T08:03:23.633Z,4.37
2022-09-12T08:06:11.370Z,4.28
2022-09-12T08:08:58.651Z,4.68
2022-09-12T08:35:10.813Z,4.03
2022-09-12T08:37:55.895Z,3.05
2022-09-12T08:40:53.934Z,4.13
2022-09-12T08:43:57.714Z,4.30
2022-09-12T08:46:48.781Z,4.87
2022-09-12T08:49:51.608Z,3.53
2022-09-12T08:53:04.537Z,4.22
2022-09-12T08:55:53.816Z,5.03
2022-09-12T08:58:45.200Z,3.97
2022-09-12T09:01:40.616Z,2.97
2022-09-12T09:04:58.564Z,3.90
2022-09-12T09:08:01.772Z,4.15
2022-09-12T09:10:57.531Z,3.13
2022-09-12T09:14:08.333Z,4.10
2022-09-12T09:16:56.119Z,3.40
2022-09-12T09:19:51.032Z,3.88
2022-09-12T09:22:44.881Z,3.28
2022-09-12T09:25:50.707Z,2.80
2022-09-12T09:28:42.359Z,3.35
2022-09-12T09:31:34.645Z,2.83
2022-09-12T09:34:22.620Z,2.67
2022-09-12T09:37:21.356Z,2.90
2022-09-12T09:40:20.744Z,3.92
2022-09-12T09:43:32.377Z,3.08
2022-09-12T09:46:17.645Z,5.17
2022-09-12T09:49:05.553Z,4.85
2022-09-12T09:51:51.234Z,3.83
2022-09-12T09:54:42.973Z,4.93
2022-09-12T09:57:34.903Z,4.07
2022-09-12T10:00:33.882Z,5.20
2022-09-12T10:03:29.439Z,3.78
2022-09-12T10:06:25.853Z,3.30
2022-09-12T10:09:27.678Z,3.25
2022-09-12T10:12:30.814Z,4.38
2022-09-12T10:15:22.577Z,3.17
2022-09-12T10:18:08.064Z,4.15
2022-09-12T10:20:53.260Z,4.65
2022-09-12T10:23:41.064Z,4.55
2022-09-12T10:26:32.544Z,2.75
2022-09-12T10:29:23.423Z,2.83
2022-09-12T10:32:09.707Z,5.68
2022-09-12T10:35:09.042Z,4.35
2022-09-12T10:38:04.790Z,3.97
2022-09-12T10:41:01.969Z,4.38
2022-09-12T10:43:47.635Z,3.57
2022-09-12T10:46:33.001Z,2.75
2022-09-12T10:49:25.189Z,2.80
2022-09-12T10:52:31.142Z,3.17
2022-09-12T10:55:16.622Z,4.68
2022-09-12T10:58:13.832Z,4.90
2022-09-12T11:01:09.878Z,3.90
2022-09-12T11:04:17.078Z,3.80
2022-09-12T11:07:07.937Z,4.40
2022-09-12T11:10:14.853Z,2.80
2022-09-12T11:13:19.610Z,4.07
2022-09-12T11:16:32.695Z,2.47
2022-09-12T11:19:39.466Z,3.15
2022-09-12T11:22:41.118Z,5.00
2022-09-12T11:25:38.496Z,2.38
2022-09-12T11:28:47.386Z,2.60
2022-09-12T11:31:55.997Z,3.03
2022-09-12T11:35:02.264Z,3.92
2022-09-12T11:37:52.640Z,3.42
2022-09-12T11:40:37.634Z,2.90
2022-09-12T11:43:41.579Z,3.83
2022-09-12T11:46:40.450Z,2.85
2022-09-12T11:49:35.561Z,4.20
2022-09-12T11:52:25.319Z,4.65
2022-09-12T11:55:17.720Z,3.28
2022-09-12T11:58:03.210Z,3.20
2022-09-12T12:00:52.706Z,3.33
2022-09-12T12:03:43.621Z,3.25
2022-09-12T12:07:01.871Z,3.08
2022-09-12T12:09:51.102Z,3.22
2022-09-12T12:12:36.549Z,3.83
2022-09-12T12:15:22.866Z,3.58
2022-09-12T12:18:17.612Z,4.15
2022-09-12T12:21:33.755Z,2.60
2022-09-12T12:24:25.052Z,3.83
2022-09-12T12:27:44.921Z,2.77
2022-09-12T12:30:30.075Z,3.65
2022-09-12T12:33:15.135Z,2.08
2022-09-12T12:35:59.911Z,2.42
2022-09-12T12:38:45.016Z,2.92
2022-09-12T12:41:36.693Z,3.60
2022-09-12T12:44:43.925Z,3.05
2022-09-12T12:47:33.971Z,2.90
2022-09-12T12:50:23.873Z,2.58
2022-09-12T12:53:18.854Z,2.53
2022-09-12T12:56:03.997Z,3.57
2022-09-12T12:58:49.319Z,2.90
2022-09-12T13:01:40.923Z,2.97
2022-09-12T13:04:31.056Z,2.55
2022-09-12T13:07:27.461Z,3.30
2022-09-12T13:10:23.897Z,5.80
2022-09-12T13:13:09.378Z,3.28
2022-09-12T13:15:54.662Z,2.92
2022-09-12T13:18:49.161Z,2.97
2022-09-12T13:21:34.497Z,3.10
2022-09-12T13:24:25.974Z,3.73
2022-09-12T13:27:22.176Z,3.45
2022-09-12T13:30:13.592Z,3.00
2022-09-12T13:33:09.425Z,3.33
2022-09-12T13:36:13.391Z,3.17
2022-09-12T13:39:11.568Z,2.43
2022-09-12T13:42:00.158Z,3.72
2022-09-12T13:45:02.711Z,3.63
2022-09-12T13:47:56.627Z,2.28
2022-09-12T13:50:56.700Z,3.80
2022-09-12T13:53:46.181Z,2.97
2022-09-12T13:56:31.146Z,3.60
2022-09-12T13:59:16.527Z,6.13
2022-09-12T14:02:01.446Z,3.13
2022-09-12T14:05:08.985Z,3.47
2022-09-12T14:07:58.750Z,3.63
2022-09-12T14:10:47.749Z,4.78
2022-09-12T14:13:34.193Z,3.25
2022-09-12T14:16:21.415Z,3.50
2022-09-12T14:19:06.406Z,3.20
2022-09-12T14:21:56.028Z,3.33
2022-09-12T14:24:43.587Z,3.97
2022-09-12T14:27:40.685Z,4.10
2022-09-12T14:30:30.478Z,4.53
2022-09-12T14:33:20.747Z,5.65
2022-09-12T14:36:10.951Z,4.20
2022-09-12T14:39:06.530Z,3.05
2022-09-12T14:42:11.537Z,3.47
2022-09-12T14:45:01.035Z,3.28
2022-09-12T14:47:50.072Z,3.17
2022-09-12T14:50:35.867Z,4.23
2022-09-12T14:53:36.292Z,4.90
2022-09-12T14:56:36.967Z,3.90
2022-09-12T14:59:34.313Z,2.78
2022-09-12T15:02:20.280Z,3.25
2022-09-12T15:05:08.807Z,3.90
2022-09-12T15:07:57.193Z,3.95
2022-09-12T15:10:42.118Z,3.95
2022-09-12T15:13:28.494Z,4.65
2022-09-12T15:16:14.627Z,2.97
2022-09-12T15:18:59.762Z,3.43
2022-09-12T15:21:44.881Z,3.28
2022-09-12T15:24:29.973Z,4.43
2022-09-12T15:27:15.179Z,3.10
2022-09-12T15:30:00.345Z,4.00
2022-09-12T15:32:46.203Z,4.33
2022-09-12T15:35:33.587Z,3.78
2022-09-12T15:38:21.057Z,3.67
2022-09-12T15:41:12.136Z,3.42
2022-09-12T15:43:59.419Z,3.92
2022-09-12T15:46:45.180Z,3.60
2022-09-12T15:49:30.615Z,3.75
2022-09-12T15:52:16.597Z,3.08
2022-09-12T15:55:01.695Z,4.43
2022-09-12T15:57:47.907Z,5.47
2022-09-12T16:00:33.502Z,3.43
2022-09-12T16:03:24.705Z,3.35
2022-09-12T16:06:11.037Z,4.15
2022-09-12T16:08:55.859Z,3.78
2022-09-12T16:11:41.297Z,4.53
2022-09-12T16:14:26.584Z,3.53
2022-09-12T16:17:11.780Z,3.50
2022-09-12T16:19:57.172Z,4.05
2022-09-12T16:22:42.706Z,5.60
2022-09-12T16:25:27.862Z,6.97
2022-09-12T16:28:13.150Z,24.57
2022-09-12T16:31:03.052Z,9.07
2022-09-12T16:33:48.122Z,11.38
2022-09-12T16:36:33.306Z,15.82
2022-09-12T16:39:18.875Z,10.13
2022-09-12T16:42:04.443Z,7.20
2022-09-12T16:44:49.837Z,11.13
2022-09-12T16:47:34.770Z,9.77
2022-09-12T16:50:19.947Z,8.73
2022-09-12T16:53:04.845Z,10.57
2022-09-12T16:55:51.149Z,6.43
2022-09-12T16:58:41.927Z,10.10
2022-09-12T17:01:27.530Z,8.15
2022-09-12T17:04:12.810Z,14.25
2022-09-12T17:06:59.432Z,11.85
2022-09-12T17:09:47.889Z,7.13
2022-09-12T17:12:33.033Z,14.50
2022-09-12T17:15:18.071Z,21.02
2022-09-12T17:18:03.797Z,9.07
2022-09-12T17:20:49.733Z,11.68
2022-09-12T17:23:34.865Z,12.77
2022-09-12T17:26:20.735Z,9.10
2022-09-12T17:29:06.120Z,11.65
2022-09-12T17:31:51.446Z,11.63
2022-09-12T17:34:36.724Z,8.98
2022-09-12T17:37:21.874Z,8.13
2022-09-12T17:40:07.443Z,8.60
2022-09-12T17:42:52.763Z,6.35
2022-09-12T17:45:38.514Z,6.65
2022-09-12T17:48:23.840Z,5.80
2022-09-12T17:51:10.451Z,8.83
2022-09-12T17:54:06.666Z,7.22
2022-09-12T17:56:52.155Z,7.80
2022-09-12T17:59:37.314Z,7.78
2022-09-12T18:02:22.179Z,10.43
2022-09-12T18:05:07.804Z,6.57
2022-09-12T18:07:52.937Z,6.97
2022-09-12T18:10:38.132Z,7.60
2022-09-12T18:13:23.153Z,8.10
2022-09-12T18:16:10.599Z,8.00
2022-09-12T18:18:55.933Z,6.33
2022-09-12T18:21:41.522Z,7.22
2022-09-12T18:24:27.860Z,6.95
2022-09-12T18:27:12.943Z,6.40
2022-09-12T18:30:19.493Z,10.35
2022-09-12T18:33:03.456Z,5.67
2022-09-12T18:35:48.629Z,7.50
2022-09-12T18:38:34.315Z,5.60
2022-09-12T18:41:22.126Z,8.75
2022-09-12T18:44:09.985Z,8.30
2022-09-12T18:46:55.710Z,9.40
2022-09-12T18:49:41.662Z,6.15
2022-09-12T18:52:27.075Z,7.43
2022-09-12T18:55:12.162Z,6.80
2022-09-12T18:57:57.024Z,7.45
2022-09-12T19:00:42.035Z,6.07
2022-09-12T19:03:27.522Z,8.75
2022-09-12T19:06:17.519Z,6.82
2022-09-12T19:09:07.532Z,7.55
2022-09-12T19:11:53.200Z,6.93
2022-09-12T19:14:38.203Z,8.67
2022-09-12T19:17:23.308Z,7.45
2022-09-12T19:20:08.749Z,8.57
2022-09-12T19:22:54.064Z,6.80
2022-09-12T19:25:39.746Z,9.52
2022-09-12T19:28:25.607Z,9.50
2022-09-12T19:31:14.256Z,7.03
2022-09-12T19:34:01.271Z,9.15
2022-09-12T19:36:47.444Z,6.40
2022-09-12T19:39:33.066Z,6.97
2022-09-12T19:42:18.091Z,7.50
2022-09-12T19:45:03.135Z,7.38
2022-09-12T19:47:48.365Z,7.18
2022-09-12T19:50:33.896Z,8.00
2022-09-12T19:53:19.196Z,9.25
2022-09-12T19:56:05.442Z,6.63
2022-09-12T19:58:55.728Z,8.00
2022-09-12T20:01:41.751Z,7.13
2022-09-12T20:04:27.108Z,7.15
2022-09-12T20:07:12.230Z,6.45
2022-09-12T20:09:57.912Z,6.00
2022-09-12T20:12:43.410Z,6.88
2022-09-12T20:15:28.366Z,7.32
2022-09-12T20:18:13.372Z,6.40
2022-09-12T20:20:58.236Z,6.95
2022-09-12T20:23:43.768Z,7.57
2022-09-12T20:26:29.267Z,7.10
2022-09-12T20:29:14.219Z,7.00
2022-09-12T20:31:59.097Z,6.38
2022-09-12T20:34:44.075Z,8.20
2022-09-12T20:37:29.918Z,7.80
2022-09-12T20:40:15.280Z,5.68
2022-09-12T20:43:00.538Z,6.45
2022-09-12T20:45:45.421Z,7.10
2022-09-12T20:48:30.534Z,7.22
2022-09-12T20:51:16.667Z,8.37
2022-09-12T20:54:03.608Z,6.72
2022-09-12T20:56:48.916Z,5.43
2022-09-12T20:59:35.192Z,6.60
2022-09-12T21:02:20.131Z,8.85
2022-09-12T21:05:05.540Z,6.80
2022-09-12T21:07:50.818Z,6.78
2022-09-12T21:10:36.051Z,6.00
2022-09-12T21:13:21.023Z,6.85
2022-09-12T21:16:07.723Z,7.57
2022-09-12T21:18:58.550Z,6.37
2022-09-12T21:21:43.785Z,13.48
2022-09-12T21:24:29.003Z,7.40
2022-09-12T21:27:13.912Z,6.47
2022-09-12T21:29:59.371Z,6.40
2022-09-12T21:32:44.824Z,6.17
2022-09-12T21:35:29.834Z,8.05
2022-09-12T21:38:16.371Z,9.07
2022-09-12T21:41:09.890Z,7.00
2022-09-12T21:43:55.076Z,6.00
2022-09-12T21:46:39.951Z,6.20
2022-09-12T21:49:24.812Z,5.97
2022-09-12T21:52:12.569Z,5.97
2022-09-12T21:54:57.586Z,7.60
2022-09-12T21:57:42.680Z,6.85
2022-09-12T22:00:27.849Z,9.10
2022-09-12T22:03:13.082Z,7.53
2022-09-12T22:06:01.617Z,6.82
2022-09-12T22:08:46.825Z,5.78
2022-09-12T22:11:31.886Z,7.15
2022-09-12T22:14:17.535Z,8.30
2022-09-12T22:17:03.084Z,8.10
2022-09-12T22:19:48.231Z,8.38
2022-09-12T22:22:54.201Z,5.22
2022-09-12T22:25:39.851Z,7.50
2022-09-12T22:28:25.217Z,7.73
2022-09-12T22:31:12.109Z,6.47
2022-09-12T22:33:58.459Z,6.88
2022-09-12T22:36:44.343Z,7.00
2022-09-12T22:39:30.239Z,6.85
2022-09-12T22:42:15.509Z,6.00
2022-09-12T22:45:00.789Z,6.35
2022-09-12T22:47:46.559Z,10.45
2022-09-12T22:50:31.915Z,6.38
2022-09-12T22:53:16.937Z,5.43
2022-09-12T22:56:02.723Z,4.73
2022-09-12T22:58:47.731Z,5.78
2022-09-12T23:55:19.615Z,4.43
